Time;durP1;ratioP1;P1;durP2;ratioP2;P2;SDS_P1;SDS_P2;PMS_P1;PMS_P2;Temp;Humidity;BMP_temperature;BMP_pressure;BME280_temperature;BME280_humidity;BME280_pressure;Samples;Min_cycle;Max_cycle;Signal;HPM_P1;HPM_P2
2023/06/09 00:01:55;;;;;;;1.13;0.47;;;16.80;99.90;;;;;;5074773;28;20206;-91
2023/06/09 00:04:26;;;;;;;3.08;0.75;;;16.70;99.90;;;;;;5075702;28;20211;-91
2023/06/09 00:06:57;;;;;;;2.97;0.65;;;16.90;99.90;;;;;;5074757;28;20724;-92
2023/06/09 00:09:28;;;;;;;0.93;0.40;;;16.90;99.90;;;;;;5074502;28;20196;-91
2023/06/09 00:12:00;;;;;;;1.40;0.50;;;17.00;99.90;;;;;;5075745;28;20196;-90
2023/06/09 00:14:33;;;;;;;1.10;0.40;;;17.00;99.90;;;;;;5085321;28;20196;-90
2023/06/09 00:17:08;;;;;;;2.92;0.50;;;17.10;99.90;;;;;;5074889;28;20230;-91
2023/06/09 00:19:41;;;;;;;2.55;0.77;;;17.20;99.90;;;;;;5075666;28;20654;-90
2023/06/09 00:22:14;;;;;;;3.35;0.60;;;17.20;99.90;;;;;;5074617;28;20202;-90
2023/06/09 00:24:48;;;;;;;2.83;0.50;;;17.30;99.90;;;;;;5074714;28;20207;-90
2023/06/09 00:27:18;;;;;;;1.92;0.73;;;17.40;99.90;;;;;;5074055;28;20226;-91
2023/06/09 00:29:52;;;;;;;1.38;0.50;;;17.40;99.90;;;;;;5075490;28;20195;-90
2023/06/09 00:32:24;;;;;;;2.83;0.70;;;17.50;99.90;;;;;;5075197;28;20228;-90
2023/06/09 00:34:56;;;;;;;2.53;0.50;;;17.50;99.90;;;;;;5076991;28;20204;-90
2023/06/09 00:37:28;;;;;;;2.30;0.63;;;17.60;99.90;;;;;;5075846;28;20247;-90
2023/06/09 00:40:00;;;;;;;1.13;0.45;;;17.70;99.90;;;;;;5074557;28;20538;-90
2023/06/09 00:42:30;;;;;;;2.67;0.75;;;17.70;99.90;;;;;;5074666;28;20242;-90
2023/06/09 00:45:04;;;;;;;2.72;0.75;;;17.70;99.90;;;;;;5075305;28;20226;-90
2023/06/09 00:47:37;;;;;;;1.45;0.65;;;17.60;99.90;;;;;;5073317;28;20290;-90
2023/06/09 00:50:11;;;;;;;2.05;0.63;;;17.70;99.90;;;;;;5074327;28;20200;-90
2023/06/09 00:52:44;;;;;;;1.60;0.60;;;17.80;99.90;;;;;;5074406;28;20204;-90
2023/06/09 00:55:17;;;;;;;3.40;0.70;;;17.80;99.90;;;;;;5074465;28;20207;-91
2023/06/09 00:57:55;;;;;;;2.20;0.73;;;17.90;99.90;;;;;;5074278;28;20200;-90
2023/06/09 01:00:29;;;;;;;2.38;0.63;;;17.90;99.90;;;;;;5074242;28;20570;-91
2023/06/09 01:03:02;;;;;;;2.17;0.50;;;17.80;99.90;;;;;;5073598;28;20199;-91
2023/06/09 01:05:34;;;;;;;3.40;0.65;;;17.80;99.90;;;;;;5073641;28;20291;-91
2023/06/09 01:08:09;;;;;;;3.08;0.75;;;17.80;99.90;;;;;;5073734;28;20224;-90
2023/06/09 01:10:45;;;;;;;2.22;0.63;;;17.70;99.90;;;;;;5073690;28;20195;-90
2023/06/09 01:13:25;;;;;;;1.83;0.60;;;17.70;99.90;;;;;;5072690;28;20203;-90
2023/06/09 01:16:04;;;;;;;1.70;0.55;;;17.70;99.90;;;;;;5055087;28;20228;-89
2023/06/09 01:18:42;;;;;;;5.68;0.88;;;17.70;99.90;;;;;;5055536;28;20205;-88
2023/06/09 01:21:25;;;;;;;3.40;0.55;;;17.80;99.90;;;;;;5054215;28;20204;-89
2023/06/09 01:24:09;;;;;;;2.65;0.68;;;17.90;99.90;;;;;;5070759;28;20192;-90
2023/06/09 01:26:43;;;;;;;1.65;0.65;;;18.00;99.90;;;;;;5073690;28;20321;-90
2023/06/09 01:29:17;;;;;;;2.50;0.60;;;18.10;99.90;;;;;;5063876;28;20203;-90
2023/06/09 01:31:51;;;;;;;1.35;0.60;;;18.10;99.90;;;;;;5068098;28;20238;-89
2023/06/09 01:34:22;;;;;;;3.53;0.90;;;18.10;99.90;;;;;;5083595;28;20585;-90
2023/06/09 01:36:54;;;;;;;3.92;0.80;;;18.20;99.90;;;;;;5078518;28;20226;-90
2023/06/09 01:39:26;;;;;;;3.13;0.98;;;18.30;99.90;;;;;;5090185;28;20194;-89
2023/06/09 01:42:01;;;;;;;0.90;0.60;;;18.30;99.90;;;;;;5096583;28;20203;-90
2023/06/09 01:44:34;;;;;;;1.70;0.63;;;18.30;99.90;;;;;;5096657;28;20275;-89
2023/06/09 01:47:07;;;;;;;2.65;0.70;;;18.30;99.90;;;;;;5096765;28;20397;-88
2023/06/09 01:49:46;;;;;;;3.45;0.60;;;18.30;99.90;;;;;;5096258;28;20256;-90
2023/06/09 01:52:23;;;;;;;2.78;0.80;;;18.20;99.90;;;;;;5096168;28;20192;-89
2023/06/09 01:54:57;;;;;;;1.77;0.57;;;18.10;99.90;;;;;;5096879;28;20183;-88
2023/06/09 01:57:38;;;;;;;2.28;0.50;;;18.20;99.90;;;;;;5096404;28;20215;-88
2023/06/09 02:00:11;;;;;;;3.78;0.63;;;18.10;99.90;;;;;;5079507;28;20620;-89
2023/06/09 02:02:43;;;;;;;1.30;0.50;;;18.30;99.90;;;;;;5077224;28;20200;-90
2023/06/09 02:05:15;;;;;;;2.80;0.70;;;18.30;99.90;;;;;;5076569;28;20273;-89
2023/06/09 02:07:48;;;;;;;2.05;0.60;;;18.30;99.90;;;;;;5075799;28;20245;-88
2023/06/09 02:10:21;;;;;;;2.10;0.85;;;18.30;99.90;;;;;;5077384;28;20203;-88
2023/06/09 02:12:54;;;;;;;1.83;0.70;;;18.30;99.90;;;;;;5076469;28;20196;-88
2023/06/09 02:15:27;;;;;;;2.83;0.70;;;18.30;99.90;;;;;;5076043;28;20203;-89
2023/06/09 02:18:01;;;;;;;1.75;0.68;;;18.40;99.90;;;;;;5075539;28;20695;-89
2023/06/09 02:20:34;;;;;;;2.72;0.70;;;18.40;99.90;;;;;;5076645;28;20197;-90
2023/06/09 02:23:05;;;;;;;5.35;1.00;;;18.40;99.90;;;;;;5073910;28;20671;-91
2023/06/09 02:25:37;;;;;;;2.55;0.77;;;18.40;99.90;;;;;;5077311;28;20203;-89
2023/06/09 02:28:11;;;;;;;1.80;0.70;;;18.50;99.90;;;;;;5075628;28;20576;-89
2023/06/09 02:30:44;;;;;;;3.05;0.80;;;18.40;99.90;;;;;;5075568;28;20215;-89
2023/06/09 02:33:18;;;;;;;1.80;0.60;;;18.50;99.90;;;;;;5075290;28;20230;-90
2023/06/09 02:35:49;;;;;;;1.73;0.65;;;18.50;99.90;;;;;;5073871;28;20203;-89
2023/06/09 02:38:22;;;;;;;2.90;0.40;;;18.50;99.90;;;;;;5073368;28;20200;-90
2023/06/09 02:40:55;;;;;;;3.15;0.73;;;18.50;99.90;;;;;;5052980;28;20200;-89
2023/06/09 02:43:34;;;;;;;3.67;0.60;;;18.50;99.90;;;;;;5055772;28;20582;-89
2023/06/09 02:46:09;;;;;;;2.45;0.60;;;18.50;99.90;;;;;;5057657;28;20671;-89
2023/06/09 02:48:41;;;;;;;2.42;1.05;;;18.50;99.90;;;;;;5058933;28;20188;-89
2023/06/09 02:51:14;;;;;;;2.45;0.80;;;18.50;99.90;;;;;;5059056;28;20212;-90
2023/06/09 02:53:47;;;;;;;1.48;0.40;;;18.60;99.90;;;;;;5056898;28;20204;-89
2023/06/09 02:56:19;;;;;;;3.53;0.50;;;18.60;99.90;;;;;;5066867;28;20219;-89
2023/06/09 02:58:57;;;;;;;1.15;0.40;;;18.70;99.90;;;;;;5077844;28;20207;-89
2023/06/09 03:01:35;;;;;;;2.38;0.32;;;18.70;99.90;;;;;;5079558;28;20191;-90
2023/06/09 03:04:07;;;;;;;1.27;0.50;;;18.70;99.90;;;;;;5077924;28;20203;-89
2023/06/09 03:06:43;;;;;;;2.30;0.70;;;18.80;99.90;;;;;;5076634;28;20700;-89
2023/06/09 03:09:15;;;;;;;0.68;0.30;;;18.80;99.90;;;;;;5077303;28;20223;-90
2023/06/09 03:11:47;;;;;;;1.17;0.40;;;18.80;99.90;;;;;;5076553;28;20696;-90
2023/06/09 03:14:23;;;;;;;0.98;0.35;;;18.70;99.90;;;;;;5071109;28;20250;-90
2023/06/09 03:16:58;;;;;;;2.17;0.75;;;18.70;99.90;;;;;;5056535;28;20328;-89
2023/06/09 03:19:29;;;;;;;1.13;0.50;;;18.80;99.90;;;;;;5056921;28;20636;-89
2023/06/09 03:22:03;;;;;;;1.60;0.40;;;18.80;99.90;;;;;;5064051;28;20214;-91
2023/06/09 03:24:34;;;;;;;1.35;0.40;;;18.80;99.90;;;;;;5075974;28;20295;-90
2023/06/09 03:27:08;;;;;;;0.98;0.50;;;18.90;99.90;;;;;;5075656;28;20272;-90
2023/06/09 03:29:44;;;;;;;2.53;0.55;;;18.90;99.90;;;;;;5076867;28;20640;-89
2023/06/09 03:32:16;;;;;;;1.77;0.47;;;19.00;99.90;;;;;;5076783;28;20235;-89
2023/06/09 03:34:49;;;;;;;1.80;0.70;;;19.20;99.90;;;;;;5076716;28;20203;-89
2023/06/09 03:37:22;;;;;;;2.08;0.40;;;19.20;99.90;;;;;;5077477;28;20223;-87
2023/06/09 03:39:55;;;;;;;1.02;0.40;;;19.40;99.90;;;;;;5077499;28;20222;-88
2023/06/09 03:42:27;;;;;;;2.45;0.60;;;19.40;99.90;;;;;;5076044;28;20199;-89
2023/06/09 03:45:02;;;;;;;0.88;0.50;;;19.50;99.90;;;;;;5076009;28;20694;-89
2023/06/09 03:47:36;;;;;;;0.80;0.40;;;19.60;99.90;;;;;;5080427;28;20241;-90
2023/06/09 03:50:08;;;;;;;3.63;0.60;;;19.80;99.90;;;;;;5081792;28;20200;-89
2023/06/09 03:52:40;;;;;;;0.70;0.40;;;19.90;99.90;;;;;;5082420;28;20204;-90
2023/06/09 03:55:13;;;;;;;1.95;0.50;;;20.00;99.90;;;;;;5077185;28;20214;-90
2023/06/09 03:57:45;;;;;;;1.17;0.38;;;20.00;99.60;;;;;;5082870;28;20223;-90
2023/06/09 04:00:22;;;;;;;1.65;0.35;;;20.00;99.90;;;;;;5077347;28;20202;-90
2023/06/09 04:02:55;;;;;;;1.55;0.40;;;20.00;99.70;;;;;;5077572;28;20248;-90
2023/06/09 04:05:28;;;;;;;1.52;0.70;;;20.10;99.90;;;;;;5078050;28;20288;-90
2023/06/09 04:08:01;;;;;;;2.35;0.50;;;20.10;99.80;;;;;;5077657;28;20247;-91
2023/06/09 04:10:34;;;;;;;1.45;0.50;;;20.20;97.70;;;;;;5077391;28;20322;-90
2023/06/09 04:13:06;;;;;;;0.65;0.50;;;20.20;95.10;;;;;;5077186;28;20254;-89
2023/06/09 04:15:43;;;;;;;3.08;0.50;;;20.20;94.60;;;;;;5077317;28;20252;-90
2023/06/09 04:18:14;;;;;;;2.40;0.40;;;20.20;95.60;;;;;;5075748;28;20234;-90
2023/06/09 04:20:47;;;;;;;1.77;0.68;;;20.30;95.80;;;;;;5076418;28;20200;-90
2023/06/09 04:23:19;;;;;;;1.30;0.40;;;20.30;93.80;;;;;;5077636;28;20204;-90
2023/06/09 04:25:53;;;;;;;2.30;0.47;;;20.40;93.50;;;;;;5077433;28;20572;-90
2023/06/09 04:28:25;;;;;;;2.63;0.50;;;20.30;94.10;;;;;;5082353;28;20196;-90
2023/06/09 04:31:01;;;;;;;0.65;0.30;;;20.40;93.40;;;;;;5077125;28;20291;-89
2023/06/09 04:33:36;;;;;;;1.50;0.30;;;20.40;93.50;;;;;;5077533;28;20249;-89
2023/06/09 04:36:11;;;;;;;0.80;0.50;;;20.30;93.10;;;;;;5074541;28;20200;-89
2023/06/09 04:38:45;;;;;;;2.60;0.40;;;20.30;92.60;;;;;;5076993;28;20227;-89
2023/06/09 04:41:17;;;;;;;1.70;0.60;;;20.30;94.00;;;;;;5079234;28;20188;-89
2023/06/09 04:43:53;;;;;;;0.88;0.43;;;20.40;94.30;;;;;;5077274;28;20740;-89
2023/06/09 04:46:30;;;;;;;1.38;0.52;;;20.50;92.20;;;;;;5079597;28;20617;-90
2023/06/09 04:49:08;;;;;;;2.42;0.40;;;20.40;92.20;;;;;;5082863;28;20243;-89
2023/06/09 04:51:46;;;;;;;2.15;0.50;;;20.30;92.30;;;;;;5076755;28;20252;-90
2023/06/09 04:54:28;;;;;;;1.38;0.40;;;20.30;92.60;;;;;;5078067;28;20195;-90
2023/06/09 04:57:05;;;;;;;1.73;0.50;;;20.40;94.00;;;;;;5058436;28;20804;-90
2023/06/09 04:59:39;;;;;;;2.05;0.40;;;20.40;92.60;;;;;;5057245;28;20208;-89
2023/06/09 05:02:15;;;;;;;5.32;0.32;;;20.30;93.00;;;;;;5056408;28;20211;-90
2023/06/09 05:04:48;;;;;;;1.48;0.40;;;20.40;92.60;;;;;;5058147;28;20204;-89
2023/06/09 05:07:20;;;;;;;2.60;0.50;;;20.40;92.80;;;;;;5056157;28;20231;-90
2023/06/09 05:09:52;;;;;;;0.82;0.28;;;20.40;93.40;;;;;;5057344;28;20204;-90
2023/06/09 05:12:25;;;;;;;1.27;0.30;;;20.40;92.30;;;;;;5064150;28;20567;-90
2023/06/09 05:14:58;;;;;;;0.47;0.22;;;20.30;92.60;;;;;;5077987;28;20200;-91
2023/06/09 05:17:34;;;;;;;1.00;0.28;;;20.30;92.90;;;;;;5075841;28;20286;-91
2023/06/09 05:20:08;;;;;;;0.85;0.30;;;20.30;92.80;;;;;;5077000;28;20222;-89
2023/06/09 05:22:43;;;;;;;1.20;0.40;;;20.30;93.00;;;;;;5076394;28;20230;-91
2023/06/09 05:25:16;;;;;;;1.83;0.50;;;20.30;93.80;;;;;;5074906;28;20192;-91
2023/06/09 05:27:49;;;;;;;1.80;0.30;;;20.30;93.20;;;;;;5075453;28;20196;-90
2023/06/09 05:30:22;;;;;;;0.85;0.38;;;20.30;92.80;;;;;;5075132;28;20204;-90
2023/06/09 05:32:57;;;;;;;0.57;0.35;;;20.30;93.00;;;;;;5075494;28;20747;-90
2023/06/09 05:35:28;;;;;;;1.70;0.50;;;20.20;93.00;;;;;;5077892;28;20315;-90
2023/06/09 05:38:01;;;;;;;2.58;0.47;;;20.20;93.30;;;;;;5075091;28;20265;-90
2023/06/09 05:40:33;;;;;;;6.13;0.50;;;20.20;94.40;;;;;;5074804;28;20231;-90
2023/06/09 05:43:07;;;;;;;0.82;0.47;;;20.30;92.70;;;;;;5075011;28;20203;-90
2023/06/09 05:45:39;;;;;;;2.00;0.52;;;20.30;92.90;;;;;;5072496;28;20801;-90
2023/06/09 05:48:15;;;;;;;0.98;0.40;;;20.20;92.40;;;;;;5075093;28;20593;-89
2023/06/09 05:50:48;;;;;;;0.90;0.50;;;20.20;92.90;;;;;;5075149;28;20195;-89
2023/06/09 05:53:19;;;;;;;4.57;0.70;;;20.20;93.70;;;;;;5076011;28;20207;-89
2023/06/09 05:55:52;;;;;;;2.28;0.40;;;20.10;93.30;;;;;;5076763;28;20204;-89
2023/06/09 05:58:24;;;;;;;0.77;0.32;;;20.00;93.90;;;;;;5075765;28;20230;-89
2023/06/09 06:00:58;;;;;;;2.28;0.40;;;20.10;94.30;;;;;;5078499;28;20199;-88
2023/06/09 06:03:33;;;;;;;1.05;0.40;;;20.00;93.90;;;;;;5077598;28;20215;-89
2023/06/09 06:06:05;;;;;;;1.23;0.50;;;20.10;94.30;;;;;;5078279;28;20203;-90
2023/06/09 06:08:37;;;;;;;0.60;0.47;;;20.10;93.50;;;;;;5078291;28;20220;-89
2023/06/09 06:11:10;;;;;;;0.93;0.50;;;20.10;94.10;;;;;;5078964;28;20261;-90
2023/06/09 06:13:41;;;;;;;0.90;0.50;;;20.10;94.90;;;;;;5077934;28;20184;-90
2023/06/09 06:16:12;;;;;;;1.15;0.35;;;20.10;95.00;;;;;;5077579;28;20282;-90
2023/06/09 06:18:49;;;;;;;1.30;0.43;;;20.10;94.90;;;;;;5076809;28;20237;-90
2023/06/09 06:21:22;;;;;;;2.22;0.47;;;20.00;94.20;;;;;;5078048;28;20520;-90
2023/06/09 06:23:55;;;;;;;1.25;0.57;;;19.80;95.00;;;;;;5077607;28;20207;-90
2023/06/09 06:26:28;;;;;;;1.40;0.45;;;19.80;94.80;;;;;;5078001;28;20190;-90
2023/06/09 06:28:59;;;;;;;1.00;0.40;;;19.70;95.20;;;;;;5078445;28;20203;-89
2023/06/09 06:31:30;;;;;;;1.95;0.40;;;19.70;95.80;;;;;;5077675;28;20231;-89
2023/06/09 06:34:07;;;;;;;1.95;0.60;;;19.60;96.80;;;;;;5075249;28;20238;-90
2023/06/09 06:36:41;;;;;;;3.88;0.60;;;19.60;96.90;;;;;;5075972;28;20238;-90
2023/06/09 06:39:15;;;;;;;1.67;0.52;;;19.50;96.80;;;;;;5078080;28;20227;-90
2023/06/09 06:41:47;;;;;;;1.63;0.50;;;19.40;97.10;;;;;;5080391;28;20728;-89
2023/06/09 06:44:20;;;;;;;2.10;0.52;;;19.30;97.80;;;;;;5075742;28;20667;-89
2023/06/09 06:46:53;;;;;;;1.40;0.50;;;19.30;98.10;;;;;;5057605;28;20201;-89
2023/06/09 06:49:29;;;;;;;0.85;0.40;;;19.20;98.60;;;;;;5058092;28;20204;-89
2023/06/09 06:52:08;;;;;;;2.83;0.70;;;19.10;98.50;;;;;;5058202;28;20301;-89
2023/06/09 06:54:42;;;;;;;0.30;0.30;;;19.10;99.20;;;;;;5064462;28;20231;-89
2023/06/09 06:57:14;;;;;;;1.83;0.40;;;19.00;99.50;;;;;;5057578;28;20207;-90
2023/06/09 06:59:46;;;;;;;1.58;0.38;;;19.00;99.90;;;;;;5054562;28;20207;-89
2023/06/09 07:02:19;;;;;;;1.65;0.60;;;19.00;99.90;;;;;;5053150;28;20204;-89
2023/06/09 07:04:56;;;;;;;3.25;0.75;;;18.90;99.90;;;;;;5058268;28;20669;-90
2023/06/09 07:07:28;;;;;;;1.35;0.50;;;18.90;99.90;;;;;;5058149;28;20244;-89
2023/06/09 07:10:00;;;;;;;2.13;0.60;;;18.80;99.90;;;;;;5074709;28;20214;-88
2023/06/09 07:12:32;;;;;;;1.50;0.90;;;18.80;99.90;;;;;;5073213;28;20199;-90
2023/06/09 07:15:04;;;;;;;1.48;0.50;;;18.70;99.90;;;;;;5074143;28;20261;-89
2023/06/09 07:17:36;;;;;;;3.45;0.60;;;18.70;99.90;;;;;;5074180;28;20220;-90
2023/06/09 07:20:12;;;;;;;1.80;0.50;;;18.70;99.90;;;;;;5079847;28;20735;-90
2023/06/09 07:22:51;;;;;;;1.67;0.40;;;18.70;99.90;;;;;;5072578;28;20663;-90
2023/06/09 07:25:22;;;;;;;1.02;0.63;;;18.60;99.90;;;;;;5072950;28;20227;-90
2023/06/09 07:27:55;;;;;;;3.33;0.70;;;18.50;99.90;;;;;;5074350;28;20215;-89
2023/06/09 07:30:26;;;;;;;1.45;0.40;;;18.50;99.90;;;;;;5075228;28;20333;-89
2023/06/09 07:32:59;;;;;;;1.40;0.80;;;18.50;99.90;;;;;;5073133;28;20595;-89
2023/06/09 07:35:34;;;;;;;1.85;0.70;;;18.40;99.90;;;;;;5076760;28;20192;-89
2023/06/09 07:38:08;;;;;;;2.20;0.73;;;18.40;99.90;;;;;;5077166;28;20220;-89
2023/06/09 07:40:39;;;;;;;1.55;0.70;;;18.40;99.90;;;;;;5059458;28;20200;-90
2023/06/09 07:43:11;;;;;;;2.05;0.70;;;18.40;99.90;;;;;;5065627;28;20200;-89
2023/06/09 07:45:45;;;;;;;4.63;0.80;;;18.40;99.90;;;;;;5079395;28;20200;-89
2023/06/09 07:48:16;;;;;;;2.13;0.80;;;18.30;99.90;;;;;;5077569;28;20655;-89
2023/06/09 07:50:49;;;;;;;3.38;1.35;;;18.30;99.90;;;;;;5076912;28;20200;-89
2023/06/09 07:53:21;;;;;;;2.55;1.00;;;18.30;99.90;;;;;;5076335;28;20194;-87
2023/06/09 07:55:53;;;;;;;4.35;1.40;;;18.30;99.90;;;;;;5075553;28;20242;-88
2023/06/09 07:58:26;;;;;;;2.20;1.20;;;18.30;99.90;;;;;;5076387;28;20224;-89
2023/06/09 08:00:59;;;;;;;3.85;1.10;;;18.20;99.90;;;;;;5076786;28;20234;-88
2023/06/09 08:03:34;;;;;;;2.60;1.20;;;18.20;99.90;;;;;;5077890;28;20282;-89
2023/06/09 08:06:11;;;;;;;4.65;1.20;;;18.20;99.90;;;;;;5077061;28;20257;-89
2023/06/09 08:08:43;;;;;;;1.98;1.10;;;18.20;99.90;;;;;;5078594;28;20219;-89
2023/06/09 08:11:16;;;;;;;2.60;1.17;;;18.10;99.90;;;;;;5059733;28;20200;-88
2023/06/09 08:13:48;;;;;;;4.63;1.98;;;18.10;99.90;;;;;;5081711;28;20199;-88
2023/06/09 08:16:21;;;;;;;4.88;1.67;;;18.10;99.90;;;;;;5090993;28;20703;-90
2023/06/09 08:18:53;;;;;;;5.15;2.60;;;18.10;99.90;;;;;;5075788;28;20773;-90
2023/06/09 08:21:27;;;;;;;5.75;2.00;;;18.10;99.90;;;;;;5076285;28;20211;-88
2023/06/09 08:23:58;;;;;;;5.22;2.65;;;18.10;99.90;;;;;;5087965;28;20190;-87
2023/06/09 08:26:30;;;;;;;3.20;2.00;;;18.10;99.90;;;;;;5098427;28;20227;-88
2023/06/09 08:29:03;;;;;;;3.70;2.50;;;18.00;99.90;;;;;;5098511;28;20192;-89
2023/06/09 08:31:39;;;;;;;9.93;5.00;;;18.00;99.90;;;;;;5097161;28;20207;-89
2023/06/09 08:34:13;;;;;;;5.55;2.67;;;17.90;99.90;;;;;;5078504;28;20290;-89
2023/06/09 08:36:48;;;;;;;5.22;2.50;;;17.90;99.90;;;;;;5097604;28;20203;-88
2023/06/09 08:39:19;;;;;;;6.25;2.35;;;17.90;99.90;;;;;;5097453;28;20255;-89
2023/06/09 08:41:56;;;;;;;5.10;2.80;;;17.80;99.90;;;;;;5094492;28;20206;-89
2023/06/09 08:44:31;;;;;;;4.35;2.20;;;17.80;99.90;;;;;;5096119;28;20259;-89
2023/06/09 08:47:07;;;;;;;4.70;2.10;;;17.80;99.90;;;;;;5095367;28;20195;-90
2023/06/09 08:49:40;;;;;;;5.13;2.28;;;17.80;99.90;;;;;;5091752;28;20199;-88
2023/06/09 08:52:15;;;;;;;3.63;1.95;;;17.80;99.90;;;;;;5081352;28;20198;-90
2023/06/09 08:54:48;;;;;;;5.20;2.45;;;17.80;99.90;;;;;;5057160;28;20199;-90
2023/06/09 08:57:20;;;;;;;4.00;2.08;;;17.70;99.90;;;;;;5055685;28;20196;-89
2023/06/09 08:59:53;;;;;;;5.25;2.40;;;17.60;99.90;;;;;;5056096;28;20225;-90
2023/06/09 09:02:25;;;;;;;4.18;1.95;;;17.60;99.90;;;;;;5056743;28;20682;-90
2023/06/09 09:05:00;;;;;;;3.50;1.73;;;17.70;99.90;;;;;;5055828;28;20572;-89
2023/06/09 09:07:35;;;;;;;4.28;2.15;;;17.70;99.90;;;;;;5057028;28;20220;-89
2023/06/09 09:10:06;;;;;;;4.28;1.80;;;17.60;99.90;;;;;;5076010;28;20240;-89
2023/06/09 09:12:51;;;;;;;2.35;1.40;;;17.60;99.90;;;;;;5075392;28;20196;-90
2023/06/09 09:15:26;;;;;;;4.72;1.92;;;17.60;99.90;;;;;;5076784;28;20204;-90
2023/06/09 09:18:00;;;;;;;7.75;3.70;;;17.60;99.90;;;;;;5075734;28;20208;-89
2023/06/09 09:20:35;;;;;;;4.72;3.22;;;17.60;99.90;;;;;;5076234;28;20200;-90
2023/06/09 09:23:10;;;;;;;3.25;2.03;;;17.50;99.90;;;;;;5075627;28;20202;-90
2023/06/09 09:25:43;;;;;;;3.83;1.80;;;17.50;99.90;;;;;;5074997;28;20209;-90
2023/06/09 09:28:15;;;;;;;5.65;2.72;;;17.50;99.90;;;;;;5074905;28;20214;-88
2023/06/09 09:30:49;;;;;;;7.95;4.03;;;17.50;99.90;;;;;;5075349;28;20233;-90
2023/06/09 09:33:26;;;;;;;6.15;3.80;;;17.40;99.90;;;;;;5074734;28;20231;-89
2023/06/09 09:36:00;;;;;;;5.07;3.00;;;17.40;99.90;;;;;;5076027;28;20318;-89
2023/06/09 09:38:36;;;;;;;7.47;4.40;;;17.30;99.90;;;;;;5074461;28;20223;-89
2023/06/09 09:41:08;;;;;;;5.13;3.40;;;17.30;99.90;;;;;;5074760;28;20200;-88
2023/06/09 09:43:41;;;;;;;9.18;4.82;;;17.30;99.90;;;;;;5075791;28;20196;-90
2023/06/09 09:46:12;;;;;;;6.82;3.45;;;17.40;99.90;;;;;;5076667;28;20207;-88
2023/06/09 09:48:49;;;;;;;5.88;3.70;;;17.30;99.90;;;;;;5076517;28;20235;-89
2023/06/09 09:51:22;;;;;;;4.63;1.98;;;17.30;99.90;;;;;;5075565;28;20242;-90
2023/06/09 09:54:02;;;;;;;5.25;2.78;;;17.20;99.90;;;;;;5074821;28;20250;-89
2023/06/09 09:56:35;;;;;;;7.45;2.60;;;17.20;99.90;;;;;;5075582;28;20253;-88
2023/06/09 09:59:08;;;;;;;3.45;1.58;;;17.20;99.90;;;;;;5073680;28;20220;-89
2023/06/09 10:01:41;;;;;;;3.03;2.00;;;17.20;99.90;;;;;;5073941;28;20204;-89
2023/06/09 10:04:14;;;;;;;5.25;3.50;;;17.10;99.90;;;;;;5074204;28;20594;-89
2023/06/09 10:06:47;;;;;;;5.78;3.65;;;17.10;99.90;;;;;;5074012;28;20218;-89
2023/06/09 10:09:23;;;;;;;2.65;1.90;;;17.00;99.90;;;;;;5073971;28;20302;-89
2023/06/09 10:11:59;;;;;;;2.50;1.55;;;17.00;99.90;;;;;;5057080;28;20293;-89
2023/06/09 10:14:32;;;;;;;2.60;1.50;;;17.00;99.90;;;;;;5056808;28;20200;-89
2023/06/09 10:17:05;;;;;;;2.17;1.25;;;17.00;99.90;;;;;;5059147;28;20205;-88
2023/06/09 10:19:37;;;;;;;2.33;1.17;;;17.00;99.90;;;;;;5076255;28;20224;-89
2023/06/09 10:22:10;;;;;;;2.67;1.20;;;17.00;99.90;;;;;;5078878;28;20207;-88
2023/06/09 10:24:49;;;;;;;2.90;1.80;;;17.00;99.90;;;;;;5082118;28;20260;-89
2023/06/09 10:27:20;;;;;;;2.35;1.80;;;17.00;99.90;;;;;;5074895;28;20184;-89
2023/06/09 10:29:53;;;;;;;3.08;2.40;;;16.90;99.90;;;;;;5075065;28;20219;-88
2023/06/09 10:32:29;;;;;;;3.00;2.13;;;16.90;99.90;;;;;;5074107;28;20228;-88
2023/06/09 10:35:28;;;;;;;2.17;1.60;;;16.90;99.90;;;;;;5119316;27;20878;-89
2023/06/09 10:38:01;;;;;;;3.17;1.80;;;16.90;99.90;;;;;;5091613;28;20191;-89
2023/06/09 10:40:41;;;;;;;11.55;4.50;;;16.80;99.90;;;;;;5083834;28;20572;-89
2023/06/09 10:43:34;;;;;;;7.93;3.50;;;16.80;99.90;;;;;;5070375;28;20232;-88
2023/06/09 10:46:07;;;;;;;3.38;2.15;;;16.80;99.90;;;;;;5070871;28;20196;-89
2023/06/09 10:48:49;;;;;;;2.60;2.15;;;16.70;99.90;;;;;;5070651;28;20200;-89
2023/06/09 10:51:45;;;;;;;4.30;2.67;;;16.70;99.90;;;;;;5071383;28;20659;-88
2023/06/09 10:54:28;;;;;;;3.85;2.60;;;16.70;99.90;;;;;;5072676;28;20220;-89
2023/06/09 10:57:02;;;;;;;2.53;2.10;;;16.60;99.90;;;;;;5071681;28;20208;-89
2023/06/09 11:00:17;;;;;;;2.85;1.60;;;16.60;99.90;;;;;;5071754;28;20200;-89
2023/06/09 11:02:55;;;;;;;1.90;1.58;;;16.60;99.90;;;;;;5072244;28;20211;-89
2023/06/09 11:05:45;;;;;;;3.35;1.77;;;16.50;99.90;;;;;;5072078;28;20694;-89
2023/06/09 11:08:19;;;;;;;1.73;1.10;;;16.50;99.90;;;;;;5070753;28;20655;-90
2023/06/09 11:10:52;;;;;;;2.42;1.25;;;16.50;99.90;;;;;;5082611;28;20210;-90
2023/06/09 11:13:42;;;;;;;2.03;1.20;;;16.50;99.90;;;;;;5090833;28;20709;-89
2023/06/09 11:16:13;;;;;;;2.33;1.30;;;16.40;99.90;;;;;;5090489;28;20753;-89
2023/06/09 11:18:46;;;;;;;3.13;1.33;;;16.40;99.90;;;;;;5090866;28;20201;-89
2023/06/09 11:21:33;;;;;;;2.55;1.30;;;16.30;99.90;;;;;;5090999;28;20200;-90
2023/06/09 11:24:10;;;;;;;2.80;1.40;;;16.30;99.90;;;;;;5090557;28;20207;-89
2023/06/09 11:26:41;;;;;;;3.42;1.20;;;16.30;99.90;;;;;;5090206;28;20582;-89
2023/06/09 11:29:30;;;;;;;2.67;1.40;;;16.30;99.90;;;;;;5090225;28;20206;-89
2023/06/09 11:32:03;;;;;;;2.95;1.50;;;16.20;99.90;;;;;;5091440;28;20211;-90
2023/06/09 11:35:08;;;;;;;2.42;1.13;;;16.30;99.90;;;;;;5091143;28;20274;-88
2023/06/09 11:37:41;;;;;;;2.38;1.30;;;16.20;99.90;;;;;;5091560;28;20200;-88
2023/06/09 11:40:18;;;;;;;2.63;1.35;;;16.30;99.90;;;;;;5091065;28;20199;-89
2023/06/09 11:42:53;;;;;;;2.63;1.15;;;16.20;99.90;;;;;;5090532;28;20196;-90
2023/06/09 11:45:29;;;;;;;3.08;1.30;;;16.20;99.90;;;;;;5084115;28;20678;-90
2023/06/09 11:48:04;;;;;;;2.38;1.10;;;16.10;99.90;;;;;;5077039;28;20242;-89
2023/06/09 11:50:42;;;;;;;3.20;1.23;;;16.10;99.90;;;;;;5078370;28;20227;-89
2023/06/09 11:53:16;;;;;;;3.13;1.10;;;16.00;99.90;;;;;;5077103;28;20666;-89
2023/06/09 11:56:01;;;;;;;3.35;1.20;;;16.00;99.90;;;;;;5078135;28;20200;-89
2023/06/09 11:58:35;;;;;;;2.97;1.20;;;16.00;99.90;;;;;;5079066;28;20180;-89
2023/06/09 12:03:49;;;;;;;3.90;1.27;;;15.90;99.90;;;;;;5078670;28;20207;-89
2023/06/09 12:06:22;;;;;;;3.50;1.20;;;15.90;99.90;;;;;;5076630;28;20192;-89
2023/06/09 12:08:53;;;;;;;5.20;1.30;;;15.80;99.90;;;;;;5075559;28;20203;-89
2023/06/09 12:11:28;;;;;;;4.18;1.40;;;15.80;99.90;;;;;;5075970;28;20200;-89
2023/06/09 12:14:01;;;;;;;3.50;1.20;;;15.80;99.90;;;;;;5077069;28;20572;-90
2023/06/09 12:16:34;;;;;;;5.68;1.42;;;15.70;99.90;;;;;;5075384;28;20221;-89
2023/06/09 12:19:09;;;;;;;3.30;0.80;;;15.70;99.90;;;;;;5093879;28;20249;-90
2023/06/09 12:21:41;;;;;;;2.70;0.82;;;15.80;99.90;;;;;;5076186;28;20619;-89
2023/06/09 12:24:15;;;;;;;2.10;0.70;;;15.80;99.90;;;;;;5075465;28;20207;-89
2023/06/09 12:26:51;;;;;;;1.95;0.70;;;15.80;99.90;;;;;;5075619;28;20196;-88
2023/06/09 12:29:30;;;;;;;2.58;0.90;;;15.80;99.90;;;;;;5075433;28;20542;-88
2023/06/09 12:32:01;;;;;;;3.67;1.20;;;15.80;99.90;;;;;;5076809;28;20199;-89
2023/06/09 12:34:34;;;;;;;5.72;1.23;;;15.70;99.90;;;;;;5078105;28;20247;-90
2023/06/09 12:37:08;;;;;;;4.18;1.23;;;15.60;99.90;;;;;;5079531;28;20192;-89
2023/06/09 12:39:39;;;;;;;2.78;1.02;;;15.60;99.90;;;;;;5083945;28;20203;-90
2023/06/09 12:42:17;;;;;;;4.13;1.20;;;15.60;99.90;;;;;;5077174;28;20677;-90
2023/06/09 12:44:53;;;;;;;2.58;1.17;;;15.50;99.90;;;;;;5070551;28;20284;-90
2023/06/09 12:47:26;;;;;;;2.33;1.02;;;15.50;99.90;;;;;;5056907;28;20196;-89
2023/06/09 12:50:00;;;;;;;3.25;1.30;;;15.60;99.90;;;;;;5062541;28;20205;-90
2023/06/09 12:52:33;;;;;;;4.72;1.30;;;15.70;99.90;;;;;;5081644;28;20232;-89
2023/06/09 12:55:04;;;;;;;4.97;1.00;;;15.60;99.90;;;;;;5077388;28;20594;-89
2023/06/09 12:57:41;;;;;;;4.00;1.30;;;15.60;99.90;;;;;;5075709;28;20235;-90
2023/06/09 13:00:14;;;;;;;3.95;1.02;;;15.60;99.90;;;;;;5077832;28;20207;-90
2023/06/09 13:02:47;;;;;;;4.97;0.90;;;15.60;99.90;;;;;;5074498;28;20196;-90
2023/06/09 13:05:19;;;;;;;4.20;1.15;;;15.70;99.90;;;;;;5075564;28;20196;-90
2023/06/09 13:07:52;;;;;;;2.88;0.80;;;15.80;99.90;;;;;;5076899;28;20233;-90
2023/06/09 13:10:24;;;;;;;4.70;1.20;;;15.80;99.90;;;;;;5074903;28;20199;-90
2023/06/09 13:12:59;;;;;;;3.40;1.30;;;15.80;99.90;;;;;;5074429;28;20203;-90
2023/06/09 13:15:32;;;;;;;4.95;1.20;;;15.80;99.90;;;;;;5074909;28;20219;-91
2023/06/09 13:18:09;;;;;;;2.10;1.00;;;15.80;99.90;;;;;;5073903;28;20670;-90
2023/06/09 13:20:41;;;;;;;3.90;1.20;;;15.90;99.90;;;;;;5074395;28;20278;-90
2023/06/09 13:23:14;;;;;;;2.53;0.90;;;15.90;99.90;;;;;;5077503;28;20203;-88
2023/06/09 13:25:45;;;;;;;3.58;1.00;;;15.80;99.90;;;;;;5082506;28;20235;-88
2023/06/09 13:28:21;;;;;;;3.75;0.95;;;15.80;99.90;;;;;;5081665;28;20203;-89